Michel Dsr — FLTE — position and weather

sailwx.info

Track history (hours):
 
Tides and Currents Weather Stations Pressure Air Temp Water Temp Dewpoint Dewpoint Depression Visibility Wind Speed Wind Dir Waves Ship Positions

Michel Dsr

Last reported at 2014-Sep-23 02:05 UTC. Time now 2014-Sep-23 10:21 UTC.
Position N 47°18' W 002°07'.

Length 80 m; draft 6 m.

Type: Dredging. MMSI: 228344700.

Date/timePositionNaut miles runAvg speedWind from/ knotsBaromVisibWave heightAir tempDewpointWater temp
2014-Sep-23 02:05N 47°18' W 002°07'0 0.0
2014-Sep-22 23:08N 47°18' W 002°07'0 0.0
2014-Sep-22 22:32N 47°18' W 002°07'37 1.5
2014-Sep-21 21:24N 46°42' W 002°11'1011.7
2014-Sep-21 20:33N 46°33' W 002°03'1211.9
2014-Sep-21 19:33N 46°24' W 001°53'1211.7
2014-Sep-21 18:33N 46°15' W 001°42'1211.6
2014-Sep-21 17:33N 46°08' W 001°29'3 0.1
2014-Sep-20 11:03N 46°05' W 001°27'5 9.2
2014-Sep-20 10:30N 46°05' W 001°34'0 0.2
2014-Sep-20 09:25N 46°05' W 001°35'0 0.1
2014-Sep-20 08:15N 46°05' W 001°35'2 2.7
2014-Sep-20 07:33N 46°05' W 001°32'14 6.5
2014-Sep-20 05:28N 46°09' W 001°13'0 0.0
2014-Sep-20 04:33N 46°09' W 001°13'0 0.0
2014-Sep-20 03:33N 46°09' W 001°13'0 0.0
2014-Sep-20 02:33N 46°09' W 001°13'0 0.0
2014-Sep-20 00:29N 46°09' W 001°13'0 0.0
2014-Sep-19 20:05N 46°09' W 001°13'0 0.0
2014-Sep-19 19:33N 46°09' W 001°13'0 0.0
2014-Sep-19 18:33N 46°09' W 001°13'0 0.0
2014-Sep-19 17:33N 46°09' W 001°13'0 0.0
2014-Sep-19 16:31N 46°09' W 001°13'0 0.0
2014-Sep-19 10:04N 46°09' W 001°13'13 4.6
2014-Sep-19 07:15N 46°09' W 001°32'810.1
2014-Sep-19 06:28N 46°14' W 001°42'9 9.6
2014-Sep-19 05:33N 46°20' W 001°50'1010.0
2014-Sep-19 04:33N 46°29' W 001°58'10 9.7
2014-Sep-19 03:33N 46°37' W 002°06'10 9.9
2014-Sep-19 02:33N 46°44' W 002°15'14 9.9
2014-Sep-19 01:11N 46°55' W 002°28'12 7.6
2014-Sep-18 23:33N 47°06' W 002°21'0 0.0
2014-Sep-18 22:24N 47°06' W 002°21'1 0.3
2014-Sep-18 20:33N 47°05' W 002°21'1 0.7
2014-Sep-18 19:30N 47°06' W 002°21'  
2014-Sep-16 09:20N 47°12' W 001°38'0 0.0
2014-Sep-16 08:29N 47°12' W 001°38'8 8.8
2014-Sep-16 07:34N 47°13' W 001°49'1511.1
2014-Sep-16 06:15N 47°17' W 002°10'811.7
2014-Sep-16 05:33N 47°11' W 002°18'5 4.0
2014-Sep-16 04:19N 47°06' W 002°21'0 0.1
2014-Sep-16 03:33N 47°06' W 002°21'1 0.4
2014-Sep-16 02:05N 47°06' W 002°21'0 0.2
2014-Sep-16 01:33N 47°06' W 002°21'1 0.5
2014-Sep-16 00:32N 47°05' W 002°21'0 0.4
2014-Sep-15 23:29N 47°06' W 002°21'0 0.1
2014-Sep-15 22:34N 47°06' W 002°21'6 5.5
2014-Sep-15 21:33N 47°11' W 002°18'29 1.4
2014-Sep-15 00:31N 46°42' W 002°12'1111.4
2014-Sep-14 23:33N 46°34' W 002°02'1111.0
2014-Sep-14 22:33N 46°25' W 001°52'1110.9
2014-Sep-14 21:33N 46°17' W 001°42'1111.1
2014-Sep-14 20:33N 46°08' W 001°32'8 0.4
2014-Sep-14 01:31N 46°13' W 001°41'32 8.1
2014-Sep-13 21:33N 46°39' W 002°09'9 9.2
2014-Sep-13 20:33N 46°46' W 002°17'40 4.8
2014-Sep-13 12:12N 47°16' W 002°56'812.2
2014-Sep-13 11:34N 47°22' W 003°04'1212.0
2014-Sep-13 10:34N 47°32' W 003°14'1211.9
2014-Sep-13 09:34N 47°42' W 003°22'3 3.2
2014-Sep-13 08:34N 47°45' W 003°19'0 0.0
2014-Sep-13 07:33N 47°45' W 003°19'0 0.0
2014-Sep-13 06:34N 47°45' W 003°19'0 0.0
2014-Sep-13 05:34N 47°45' W 003°19'2 2.2
2014-Sep-13 04:33N 47°43' W 003°22'4 4.0
2014-Sep-13 03:33N 47°40' W 003°25'0 0.0
2014-Sep-13 02:33N 47°40' W 003°25'  
Track history (hours):
 
Tides and Currents Weather Stations Pressure Air Temp Water Temp Dewpoint Dewpoint Depression Visibility Wind Speed Wind Dir Waves Ship Positions

Michel Dsr

Last reported at 2014-Sep-23 02:05 UTC. Time now 2014-Sep-23 10:21 UTC.
Position N 47°18' W 002°07'.

Length 80 m; draft 6 m.

Type: Dredging. MMSI: 228344700.

Date/timePositionNaut miles runAvg speedWind from/ knotsBaromVisibWave heightAir tempDewpointWater temp
2014-Sep-23 02:05N 47°18' W 002°07'0 0.0
2014-Sep-22 23:08N 47°18' W 002°07'0 0.0
2014-Sep-22 22:32N 47°18' W 002°07'37 1.5
2014-Sep-21 21:24N 46°42' W 002°11'1011.7
2014-Sep-21 20:33N 46°33' W 002°03'1211.9
2014-Sep-21 19:33N 46°24' W 001°53'1211.7
2014-Sep-21 18:33N 46°15' W 001°42'1211.6
2014-Sep-21 17:33N 46°08' W 001°29'3 0.1
2014-Sep-20 11:03N 46°05' W 001°27'5 9.2
2014-Sep-20 10:30N 46°05' W 001°34'0 0.2
2014-Sep-20 09:25N 46°05' W 001°35'0 0.1
2014-Sep-20 08:15N 46°05' W 001°35'2 2.7
2014-Sep-20 07:33N 46°05' W 001°32'14 6.5
2014-Sep-20 05:28N 46°09' W 001°13'0 0.0
2014-Sep-20 04:33N 46°09' W 001°13'0 0.0
2014-Sep-20 03:33N 46°09' W 001°13'0 0.0
2014-Sep-20 02:33N 46°09' W 001°13'0 0.0
2014-Sep-20 00:29N 46°09' W 001°13'0 0.0
2014-Sep-19 20:05N 46°09' W 001°13'0 0.0
2014-Sep-19 19:33N 46°09' W 001°13'0 0.0
2014-Sep-19 18:33N 46°09' W 001°13'0 0.0
2014-Sep-19 17:33N 46°09' W 001°13'0 0.0
2014-Sep-19 16:31N 46°09' W 001°13'0 0.0
2014-Sep-19 10:04N 46°09' W 001°13'13 4.6
2014-Sep-19 07:15N 46°09' W 001°32'810.1
2014-Sep-19 06:28N 46°14' W 001°42'9 9.6
2014-Sep-19 05:33N 46°20' W 001°50'1010.0
2014-Sep-19 04:33N 46°29' W 001°58'10 9.7
2014-Sep-19 03:33N 46°37' W 002°06'10 9.9
2014-Sep-19 02:33N 46°44' W 002°15'14 9.9
2014-Sep-19 01:11N 46°55' W 002°28'12 7.6
2014-Sep-18 23:33N 47°06' W 002°21'0 0.0
2014-Sep-18 22:24N 47°06' W 002°21'1 0.3
2014-Sep-18 20:33N 47°05' W 002°21'1 0.7
2014-Sep-18 19:30N 47°06' W 002°21'  
2014-Sep-16 09:20N 47°12' W 001°38'0 0.0
2014-Sep-16 08:29N 47°12' W 001°38'8 8.8
2014-Sep-16 07:34N 47°13' W 001°49'1511.1
2014-Sep-16 06:15N 47°17' W 002°10'811.7
2014-Sep-16 05:33N 47°11' W 002°18'5 4.0
2014-Sep-16 04:19N 47°06' W 002°21'0 0.1
2014-Sep-16 03:33N 47°06' W 002°21'1 0.4
2014-Sep-16 02:05N 47°06' W 002°21'0 0.2
2014-Sep-16 01:33N 47°06' W 002°21'1 0.5
2014-Sep-16 00:32N 47°05' W 002°21'0 0.4
2014-Sep-15 23:29N 47°06' W 002°21'0 0.1
2014-Sep-15 22:34N 47°06' W 002°21'6 5.5
2014-Sep-15 21:33N 47°11' W 002°18'29 1.4
2014-Sep-15 00:31N 46°42' W 002°12'1111.4
2014-Sep-14 23:33N 46°34' W 002°02'1111.0
2014-Sep-14 22:33N 46°25' W 001°52'1110.9
2014-Sep-14 21:33N 46°17' W 001°42'1111.1
2014-Sep-14 20:33N 46°08' W 001°32'8 0.4
2014-Sep-14 01:31N 46°13' W 001°41'32 8.1
2014-Sep-13 21:33N 46°39' W 002°09'9 9.2
2014-Sep-13 20:33N 46°46' W 002°17'40 4.8
2014-Sep-13 12:12N 47°16' W 002°56'812.2
2014-Sep-13 11:34N 47°22' W 003°04'1212.0
2014-Sep-13 10:34N 47°32' W 003°14'1211.9
2014-Sep-13 09:34N 47°42' W 003°22'3 3.2
2014-Sep-13 08:34N 47°45' W 003°19'0 0.0
2014-Sep-13 07:33N 47°45' W 003°19'0 0.0
2014-Sep-13 06:34N 47°45' W 003°19'0 0.0
2014-Sep-13 05:34N 47°45' W 003°19'2 2.2
2014-Sep-13 04:33N 47°43' W 003°22'4 4.0
2014-Sep-13 03:33N 47°40' W 003°25'0 0.0
2014-Sep-13 02:33N 47°40' W 003°25'  

Dump ship's entire track history